sensor_id;sensor_type;location;lat;lon;timestamp;P1;durP1;ratioP1;P2;durP2;ratioP2
1024;SDS011;501;48.214;11.350;2022-07-25T00:00:29;14.97;;;13.57;;
1024;SDS011;501;48.214;11.350;2022-07-25T00:02:55;15.97;;;14.57;;
1024;SDS011;501;48.214;11.350;2022-07-25T00:05:21;14.93;;;13.50;;
1024;SDS011;501;48.214;11.350;2022-07-25T00:07:47;15.20;;;13.80;;
1024;SDS011;501;48.214;11.350;2022-07-25T00:10:13;14.70;;;13.30;;
1024;SDS011;501;48.214;11.350;2022-07-25T00:12:38;14.27;;;12.97;;
1024;SDS011;501;48.214;11.350;2022-07-25T00:15:06;15.37;;;13.97;;
1024;SDS011;501;48.214;11.350;2022-07-25T00:17:31;14.67;;;13.23;;
1024;SDS011;501;48.214;11.350;2022-07-25T00:19:57;16.10;;;14.60;;
1024;SDS011;501;48.214;11.350;2022-07-25T00:22:23;16.57;;;12.47;;
1024;SDS011;501;48.214;11.350;2022-07-25T00:24:48;15.10;;;13.40;;
1024;SDS011;501;48.214;11.350;2022-07-25T00:27:14;15.03;;;13.60;;
1024;SDS011;501;48.214;11.350;2022-07-25T00:29:40;16.90;;;15.10;;
1024;SDS011;501;48.214;11.350;2022-07-25T00:32:05;16.17;;;14.67;;
1024;SDS011;501;48.214;11.350;2022-07-25T00:34:31;16.47;;;14.70;;
1024;SDS011;501;48.214;11.350;2022-07-25T00:36:57;15.77;;;14.23;;
1024;SDS011;501;48.214;11.350;2022-07-25T00:39:22;15.50;;;14.10;;
1024;SDS011;501;48.214;11.350;2022-07-25T00:41:48;16.00;;;14.07;;
1024;SDS011;501;48.214;11.350;2022-07-25T00:44:24;15.33;;;13.73;;
1024;SDS011;501;48.214;11.350;2022-07-25T00:46:54;16.17;;;14.70;;
1024;SDS011;501;48.214;11.350;2022-07-25T00:49:20;15.83;;;14.20;;
1024;SDS011;501;48.214;11.350;2022-07-25T00:51:47;14.03;;;12.70;;
1024;SDS011;501;48.214;11.350;2022-07-25T00:54:13;15.50;;;14.10;;
1024;SDS011;501;48.214;11.350;2022-07-25T00:56:39;18.33;;;15.63;;
1024;SDS011;501;48.214;11.350;2022-07-25T00:59:05;16.33;;;14.73;;
1024;SDS011;501;48.214;11.350;2022-07-25T01:01:30;17.47;;;15.80;;
1024;SDS011;501;48.214;11.350;2022-07-25T01:03:56;15.13;;;13.70;;
1024;SDS011;501;48.214;11.350;2022-07-25T01:06:22;15.30;;;13.90;;
1024;SDS011;501;48.214;11.350;2022-07-25T01:08:48;16.53;;;14.93;;
1024;SDS011;501;48.214;11.350;2022-07-25T01:11:14;16.27;;;14.73;;
1024;SDS011;501;48.214;11.350;2022-07-25T01:13:40;18.40;;;16.10;;
1024;SDS011;501;48.214;11.350;2022-07-25T01:16:05;18.43;;;16.03;;
1024;SDS011;501;48.214;11.350;2022-07-25T01:18:31;16.40;;;14.90;;
1024;SDS011;501;48.214;11.350;2022-07-25T01:20:58;17.03;;;15.37;;
1024;SDS011;501;48.214;11.350;2022-07-25T01:23:24;15.10;;;13.70;;
1024;SDS011;501;48.214;11.350;2022-07-25T01:25:50;15.97;;;14.47;;
1024;SDS011;501;48.214;11.350;2022-07-25T01:28:16;19.30;;;14.90;;
1024;SDS011;501;48.214;11.350;2022-07-25T01:30:42;15.03;;;13.63;;
1024;SDS011;501;48.214;11.350;2022-07-25T01:33:08;16.67;;;15.13;;
1024;SDS011;501;48.214;11.350;2022-07-25T01:35:33;16.40;;;14.43;;
1024;SDS011;501;48.214;11.350;2022-07-25T01:37:59;16.77;;;15.27;;
1024;SDS011;501;48.214;11.350;2022-07-25T01:40:25;17.17;;;15.57;;
1024;SDS011;501;48.214;11.350;2022-07-25T01:42:51;16.50;;;15.00;;
1024;SDS011;501;48.214;11.350;2022-07-25T01:45:16;16.10;;;14.60;;
1024;SDS011;501;48.214;11.350;2022-07-25T01:47:42;16.90;;;15.10;;
1024;SDS011;501;48.214;11.350;2022-07-25T01:50:08;16.67;;;15.07;;
1024;SDS011;501;48.214;11.350;2022-07-25T01:52:35;17.10;;;15.50;;
1024;SDS011;501;48.214;11.350;2022-07-25T01:55:01;16.43;;;14.90;;
1024;SDS011;501;48.214;11.350;2022-07-25T01:57:26;18.40;;;16.60;;
1024;SDS011;501;48.214;11.350;2022-07-25T01:59:52;17.43;;;15.73;;
1024;SDS011;501;48.214;11.350;2022-07-25T02:02:18;17.87;;;16.10;;
1024;SDS011;501;48.214;11.350;2022-07-25T02:04:43;17.40;;;15.70;;
1024;SDS011;501;48.214;11.350;2022-07-25T02:07:09;17.53;;;15.83;;
1024;SDS011;501;48.214;11.350;2022-07-25T02:09:34;17.30;;;15.50;;
1024;SDS011;501;48.214;11.350;2022-07-25T02:12:00;16.50;;;15.00;;
1024;SDS011;501;48.214;11.350;2022-07-25T02:14:26;16.73;;;15.07;;
1024;SDS011;501;48.214;11.350;2022-07-25T02:16:51;18.10;;;16.40;;
1024;SDS011;501;48.214;11.350;2022-07-25T02:19:17;18.27;;;16.53;;
1024;SDS011;501;48.214;11.350;2022-07-25T02:21:43;17.00;;;15.50;;
1024;SDS011;501;48.214;11.350;2022-07-25T02:24:09;18.57;;;16.80;;
1024;SDS011;501;48.214;11.350;2022-07-25T02:26:34;20.87;;;16.60;;
1024;SDS011;501;48.214;11.350;2022-07-25T02:29:00;17.70;;;16.10;;
1024;SDS011;501;48.214;11.350;2022-07-25T02:31:26;18.43;;;16.40;;
1024;SDS011;501;48.214;11.350;2022-07-25T02:33:51;17.80;;;16.10;;
1024;SDS011;501;48.214;11.350;2022-07-25T02:36:17;18.30;;;16.60;;
1024;SDS011;501;48.214;11.350;2022-07-25T02:38:42;19.23;;;17.43;;
1024;SDS011;501;48.214;11.350;2022-07-25T02:41:08;17.60;;;15.90;;
1024;SDS011;501;48.214;11.350;2022-07-25T02:43:35;17.63;;;16.03;;
1024;SDS011;501;48.214;11.350;2022-07-25T02:46:01;18.27;;;16.37;;
1024;SDS011;501;48.214;11.350;2022-07-25T02:48:26;19.97;;;18.00;;
1024;SDS011;501;48.214;11.350;2022-07-25T02:50:52;17.90;;;16.23;;
1024;SDS011;501;48.214;11.350;2022-07-25T02:53:18;19.27;;;17.37;;
1024;SDS011;501;48.214;11.350;2022-07-25T02:55:43;17.60;;;15.80;;
1024;SDS011;501;48.214;11.350;2022-07-25T02:58:09;18.60;;;16.80;;
1024;SDS011;501;48.214;11.350;2022-07-25T03:00:35;17.97;;;16.07;;
1024;SDS011;501;48.214;11.350;2022-07-25T03:03:01;18.30;;;16.60;;
1024;SDS011;501;48.214;11.350;2022-07-25T03:05:27;17.93;;;16.13;;
1024;SDS011;501;48.214;11.350;2022-07-25T03:07:52;17.67;;;15.97;;
1024;SDS011;501;48.214;11.350;2022-07-25T03:10:18;18.33;;;16.60;;
1024;SDS011;501;48.214;11.350;2022-07-25T03:12:44;19.13;;;17.27;;
1024;SDS011;501;48.214;11.350;2022-07-25T03:15:10;19.90;;;17.40;;
1024;SDS011;501;48.214;11.350;2022-07-25T03:17:37;18.60;;;16.70;;
1024;SDS011;501;48.214;11.350;2022-07-25T03:20:03;19.00;;;16.97;;
1024;SDS011;501;48.214;11.350;2022-07-25T03:22:30;18.83;;;16.90;;
1024;SDS011;501;48.214;11.350;2022-07-25T03:24:56;17.23;;;14.90;;
1024;SDS011;501;48.214;11.350;2022-07-25T03:27:21;18.80;;;17.00;;
1024;SDS011;501;48.214;11.350;2022-07-25T03:29:47;17.60;;;15.90;;
1024;SDS011;501;48.214;11.350;2022-07-25T03:32:13;17.30;;;15.60;;
1024;SDS011;501;48.214;11.350;2022-07-25T03:34:38;18.57;;;16.67;;
1024;SDS011;501;48.214;11.350;2022-07-25T03:37:04;17.90;;;15.93;;
1024;SDS011;501;48.214;11.350;2022-07-25T03:39:30;19.00;;;17.07;;
1024;SDS011;501;48.214;11.350;2022-07-25T03:41:55;20.10;;;17.97;;
1024;SDS011;501;48.214;11.350;2022-07-25T03:44:22;20.53;;;18.37;;
1024;SDS011;501;48.214;11.350;2022-07-25T03:46:48;18.83;;;17.10;;
1024;SDS011;501;48.214;11.350;2022-07-25T03:49:14;19.17;;;17.17;;
1024;SDS011;501;48.214;11.350;2022-07-25T03:51:40;19.87;;;18.00;;
1024;SDS011;501;48.214;11.350;2022-07-25T03:54:06;19.60;;;17.47;;
1024;SDS011;501;48.214;11.350;2022-07-25T03:56:45;19.03;;;16.67;;
1024;SDS011;501;48.214;11.350;2022-07-25T03:59:13;20.03;;;17.90;;
1024;SDS011;501;48.214;11.350;2022-07-25T04:01:41;19.40;;;17.53;;
1024;SDS011;501;48.214;11.350;2022-07-25T04:04:08;20.40;;;18.40;;
1024;SDS011;501;48.214;11.350;2022-07-25T04:06:34;19.50;;;17.60;;
1024;SDS011;501;48.214;11.350;2022-07-25T04:09:00;20.47;;;17.80;;
1024;SDS011;501;48.214;11.350;2022-07-25T04:11:26;17.97;;;16.27;;
1024;SDS011;501;48.214;11.350;2022-07-25T04:13:54;18.50;;;16.63;;
1024;SDS011;501;48.214;11.350;2022-07-25T04:16:20;16.87;;;15.43;;
1024;SDS011;501;48.214;11.350;2022-07-25T04:18:46;18.60;;;16.80;;
1024;SDS011;501;48.214;11.350;2022-07-25T04:21:12;17.43;;;15.63;;
1024;SDS011;501;48.214;11.350;2022-07-25T04:23:37;19.87;;;17.97;;
1024;SDS011;501;48.214;11.350;2022-07-25T04:26:03;19.50;;;16.80;;
1024;SDS011;501;48.214;11.350;2022-07-25T04:28:29;19.73;;;17.77;;
1024;SDS011;501;48.214;11.350;2022-07-25T04:30:54;17.33;;;15.73;;
1024;SDS011;501;48.214;11.350;2022-07-25T04:33:20;19.70;;;17.07;;
1024;SDS011;501;48.214;11.350;2022-07-25T04:35:46;19.37;;;17.03;;
1024;SDS011;501;48.214;11.350;2022-07-25T04:38:12;19.10;;;17.17;;
1024;SDS011;501;48.214;11.350;2022-07-25T04:40:38;20.73;;;18.63;;
1024;SDS011;501;48.214;11.350;2022-07-25T04:43:04;17.50;;;15.90;;
1024;SDS011;501;48.214;11.350;2022-07-25T04:45:30;18.10;;;16.27;;
1024;SDS011;501;48.214;11.350;2022-07-25T04:47:56;18.13;;;16.40;;
1024;SDS011;501;48.214;11.350;2022-07-25T04:50:22;18.20;;;16.50;;
1024;SDS011;501;48.214;11.350;2022-07-25T04:52:48;18.60;;;16.80;;
1024;SDS011;501;48.214;11.350;2022-07-25T04:55:14;17.40;;;15.80;;
1024;SDS011;501;48.214;11.350;2022-07-25T04:57:40;20.27;;;16.10;;
1024;SDS011;501;48.214;11.350;2022-07-25T05:00:06;18.03;;;16.23;;
1024;SDS011;501;48.214;11.350;2022-07-25T05:02:33;17.97;;;16.27;;
1024;SDS011;501;48.214;11.350;2022-07-25T05:04:59;18.00;;;16.10;;
1024;SDS011;501;48.214;11.350;2022-07-25T05:07:25;18.20;;;16.30;;
1024;SDS011;501;48.214;11.350;2022-07-25T05:09:51;17.53;;;15.87;;
1024;SDS011;501;48.214;11.350;2022-07-25T05:12:17;18.03;;;16.33;;
1024;SDS011;501;48.214;11.350;2022-07-25T05:14:42;17.90;;;16.17;;
1024;SDS011;501;48.214;11.350;2022-07-25T05:17:08;18.20;;;16.60;;
1024;SDS011;501;48.214;11.350;2022-07-25T05:19:34;20.50;;;17.50;;
1024;SDS011;501;48.214;11.350;2022-07-25T05:22:00;16.70;;;15.10;;
1024;SDS011;501;48.214;11.350;2022-07-25T05:24:27;18.20;;;16.30;;
1024;SDS011;501;48.214;11.350;2022-07-25T05:26:52;18.60;;;16.70;;
1024;SDS011;501;48.214;11.350;2022-07-25T05:29:18;18.70;;;16.90;;
1024;SDS011;501;48.214;11.350;2022-07-25T05:31:44;17.27;;;15.77;;
1024;SDS011;501;48.214;11.350;2022-07-25T05:34:09;20.57;;;16.17;;
1024;SDS011;501;48.214;11.350;2022-07-25T05:36:35;19.90;;;17.33;;
1024;SDS011;501;48.214;11.350;2022-07-25T05:39:01;17.53;;;15.87;;
1024;SDS011;501;48.214;11.350;2022-07-25T05:41:27;21.40;;;16.87;;
1024;SDS011;501;48.214;11.350;2022-07-25T05:43:53;18.83;;;16.93;;
1024;SDS011;501;48.214;11.350;2022-07-25T05:46:19;17.10;;;15.60;;
1024;SDS011;501;48.214;11.350;2022-07-25T05:48:44;18.17;;;16.27;;
1024;SDS011;501;48.214;11.350;2022-07-25T05:51:10;17.80;;;16.20;;
1024;SDS011;501;48.214;11.350;2022-07-25T05:53:36;18.53;;;16.80;;
1024;SDS011;501;48.214;11.350;2022-07-25T05:56:02;19.13;;;17.33;;
1024;SDS011;501;48.214;11.350;2022-07-25T05:58:29;16.97;;;15.37;;
1024;SDS011;501;48.214;11.350;2022-07-25T06:00:55;17.27;;;15.63;;
1024;SDS011;501;48.214;11.350;2022-07-25T06:03:21;17.20;;;15.70;;
1024;SDS011;501;48.214;11.350;2022-07-25T06:05:47;17.77;;;15.90;;
1024;SDS011;501;48.214;11.350;2022-07-25T06:08:13;17.10;;;15.50;;
1024;SDS011;501;48.214;11.350;2022-07-25T06:10:39;15.97;;;14.47;;
1024;SDS011;501;48.214;11.350;2022-07-25T06:13:05;17.00;;;15.40;;
1024;SDS011;501;48.214;11.350;2022-07-25T06:15:31;17.13;;;15.43;;
1024;SDS011;501;48.214;11.350;2022-07-25T06:17:57;17.63;;;15.67;;
1024;SDS011;501;48.214;11.350;2022-07-25T06:20:22;16.13;;;14.70;;
1024;SDS011;501;48.214;11.350;2022-07-25T06:22:48;17.10;;;15.30;;
1024;SDS011;501;48.214;11.350;2022-07-25T06:25:13;16.70;;;14.20;;
1024;SDS011;501;48.214;11.350;2022-07-25T06:27:39;14.70;;;13.50;;
1024;SDS011;501;48.214;11.350;2022-07-25T06:30:06;16.17;;;14.60;;
1024;SDS011;501;48.214;11.350;2022-07-25T06:32:32;16.70;;;15.20;;
1024;SDS011;501;48.214;11.350;2022-07-25T06:34:58;16.10;;;14.50;;
1024;SDS011;501;48.214;11.350;2022-07-25T06:37:24;15.33;;;14.00;;
1024;SDS011;501;48.214;11.350;2022-07-25T06:39:50;16.33;;;14.67;;
1024;SDS011;501;48.214;11.350;2022-07-25T06:42:16;15.40;;;13.80;;
1024;SDS011;501;48.214;11.350;2022-07-25T06:44:41;16.67;;;15.17;;
1024;SDS011;501;48.214;11.350;2022-07-25T06:47:07;16.73;;;15.27;;
1024;SDS011;501;48.214;11.350;2022-07-25T06:49:36;16.37;;;14.77;;
1024;SDS011;501;48.214;11.350;2022-07-25T06:52:03;15.27;;;13.90;;
1024;SDS011;501;48.214;11.350;2022-07-25T06:54:29;16.07;;;14.53;;
1024;SDS011;501;48.214;11.350;2022-07-25T06:56:55;16.07;;;14.67;;
1024;SDS011;501;48.214;11.350;2022-07-25T06:59:20;17.80;;;16.20;;
1024;SDS011;501;48.214;11.350;2022-07-25T07:01:46;16.50;;;15.00;;
1024;SDS011;501;48.214;11.350;2022-07-25T07:04:11;15.80;;;14.30;;
1024;SDS011;501;48.214;11.350;2022-07-25T07:06:37;17.00;;;15.50;;
1024;SDS011;501;48.214;11.350;2022-07-25T07:09:03;16.07;;;14.67;;
1024;SDS011;501;48.214;11.350;2022-07-25T07:11:29;15.40;;;14.00;;
1024;SDS011;501;48.214;11.350;2022-07-25T07:13:55;15.40;;;14.00;;
1024;SDS011;501;48.214;11.350;2022-07-25T07:16:21;14.70;;;13.30;;
1024;SDS011;501;48.214;11.350;2022-07-25T07:18:46;16.30;;;14.80;;
1024;SDS011;501;48.214;11.350;2022-07-25T07:21:12;17.13;;;15.53;;
1024;SDS011;501;48.214;11.350;2022-07-25T07:23:37;15.40;;;13.93;;
1024;SDS011;501;48.214;11.350;2022-07-25T07:26:03;14.93;;;13.60;;
1024;SDS011;501;48.214;11.350;2022-07-25T07:28:29;15.87;;;14.40;;
1024;SDS011;501;48.214;11.350;2022-07-25T07:30:54;14.83;;;13.43;;
1024;SDS011;501;48.214;11.350;2022-07-25T07:33:20;16.40;;;14.27;;
1024;SDS011;501;48.214;11.350;2022-07-25T07:35:46;15.70;;;14.30;;
1024;SDS011;501;48.214;11.350;2022-07-25T07:38:11;15.90;;;14.53;;
1024;SDS011;501;48.214;11.350;2022-07-25T07:40:37;15.80;;;14.40;;
1024;SDS011;501;48.214;11.350;2022-07-25T07:43:03;15.50;;;13.93;;
1024;SDS011;501;48.214;11.350;2022-07-25T07:45:29;14.73;;;13.53;;
1024;SDS011;501;48.214;11.350;2022-07-25T07:47:55;15.70;;;14.20;;
1024;SDS011;501;48.214;11.350;2022-07-25T07:50:22;15.73;;;14.43;;
1024;SDS011;501;48.214;11.350;2022-07-25T07:52:49;15.40;;;14.00;;
1024;SDS011;501;48.214;11.350;2022-07-25T07:57:47;15.67;;;14.27;;
1024;SDS011;501;48.214;11.350;2022-07-25T08:00:13;15.33;;;14.03;;
1024;SDS011;501;48.214;11.350;2022-07-25T08:02:43;16.17;;;14.67;;
1024;SDS011;501;48.214;11.350;2022-07-25T08:05:35;15.27;;;13.93;;
1024;SDS011;501;48.214;11.350;2022-07-25T08:08:06;15.43;;;14.20;;
1024;SDS011;501;48.214;11.350;2022-07-25T08:10:34;14.93;;;13.53;;
1024;SDS011;501;48.214;11.350;2022-07-25T08:13:01;15.50;;;14.20;;
1024;SDS011;501;48.214;11.350;2022-07-25T08:15:36;15.53;;;14.03;;
1024;SDS011;501;48.214;11.350;2022-07-25T08:18:01;14.80;;;13.40;;
1024;SDS011;501;48.214;11.350;2022-07-25T08:20:28;15.27;;;13.97;;
1024;SDS011;501;48.214;11.350;2022-07-25T08:22:54;14.60;;;13.20;;
1024;SDS011;501;48.214;11.350;2022-07-25T08:25:20;15.30;;;14.00;;
1024;SDS011;501;48.214;11.350;2022-07-25T08:27:46;15.97;;;14.57;;
1024;SDS011;501;48.214;11.350;2022-07-25T08:30:12;13.83;;;12.73;;
1024;SDS011;501;48.214;11.350;2022-07-25T08:32:49;13.43;;;12.33;;
1024;SDS011;501;48.214;11.350;2022-07-25T08:35:20;15.20;;;13.90;;
1024;SDS011;501;48.214;11.350;2022-07-25T08:37:47;14.93;;;13.60;;
1024;SDS011;501;48.214;11.350;2022-07-25T08:40:13;15.80;;;14.30;;
1024;SDS011;501;48.214;11.350;2022-07-25T08:42:40;17.17;;;13.50;;
1024;SDS011;501;48.214;11.350;2022-07-25T08:45:07;15.47;;;13.97;;
1024;SDS011;501;48.214;11.350;2022-07-25T08:47:37;21.27;;;14.53;;
1024;SDS011;501;48.214;11.350;2022-07-25T08:50:05;15.30;;;13.70;;
1024;SDS011;501;48.214;11.350;2022-07-25T08:52:32;16.27;;;14.57;;
1024;SDS011;501;48.214;11.350;2022-07-25T08:55:23;14.97;;;13.47;;
1024;SDS011;501;48.214;11.350;2022-07-25T08:57:48;14.57;;;13.27;;
1024;SDS011;501;48.214;11.350;2022-07-25T09:00:20;14.03;;;12.77;;
1024;SDS011;501;48.214;11.350;2022-07-25T09:02:56;14.70;;;13.20;;
1024;SDS011;501;48.214;11.350;2022-07-25T09:05:23;14.37;;;13.17;;
1024;SDS011;501;48.214;11.350;2022-07-25T09:07:51;13.30;;;12.23;;
1024;SDS011;501;48.214;11.350;2022-07-25T09:10:21;14.50;;;13.20;;
1024;SDS011;501;48.214;11.350;2022-07-25T09:15:38;15.03;;;13.73;;
1024;SDS011;501;48.214;11.350;2022-07-25T09:18:10;14.63;;;13.27;;
1024;SDS011;501;48.214;11.350;2022-07-25T09:23:08;13.30;;;12.27;;
1024;SDS011;501;48.214;11.350;2022-07-25T09:25:38;14.53;;;13.13;;
1024;SDS011;501;48.214;11.350;2022-07-25T09:30:36;15.07;;;13.73;;
1024;SDS011;501;48.214;11.350;2022-07-25T09:33:03;15.40;;;14.10;;
1024;SDS011;501;48.214;11.350;2022-07-25T09:35:29;15.50;;;14.00;;
1024;SDS011;501;48.214;11.350;2022-07-25T09:38:10;15.33;;;13.57;;
1024;SDS011;501;48.214;11.350;2022-07-25T09:40:37;14.90;;;13.70;;
1024;SDS011;501;48.214;11.350;2022-07-25T09:43:03;15.60;;;14.20;;
1024;SDS011;501;48.214;11.350;2022-07-25T09:45:29;14.30;;;12.80;;
1024;SDS011;501;48.214;11.350;2022-07-25T09:47:59;15.20;;;13.90;;
1024;SDS011;501;48.214;11.350;2022-07-25T09:50:30;15.27;;;13.87;;
1024;SDS011;501;48.214;11.350;2022-07-25T09:52:58;13.23;;;12.13;;
1024;SDS011;501;48.214;11.350;2022-07-25T09:55:26;12.83;;;11.53;;
1024;SDS011;501;48.214;11.350;2022-07-25T09:57:52;13.50;;;12.17;;
1024;SDS011;501;48.214;11.350;2022-07-25T10:00:19;13.23;;;12.13;;
1024;SDS011;501;48.214;11.350;2022-07-25T10:05:47;13.30;;;11.27;;
1024;SDS011;501;48.214;11.350;2022-07-25T10:08:14;12.47;;;11.27;;
1024;SDS011;501;48.214;11.350;2022-07-25T10:10:42;12.63;;;11.53;;
1024;SDS011;501;48.214;11.350;2022-07-25T10:13:09;13.47;;;12.17;;
1024;SDS011;501;48.214;11.350;2022-07-25T10:15:48;12.70;;;11.50;;
1024;SDS011;501;48.214;11.350;2022-07-25T10:18:16;11.93;;;10.77;;
1024;SDS011;501;48.214;11.350;2022-07-25T10:20:47;11.20;;;9.60;;
1024;SDS011;501;48.214;11.350;2022-07-25T10:23:18;11.40;;;10.40;;
1024;SDS011;501;48.214;11.350;2022-07-25T10:28:50;10.43;;;9.57;;
1024;SDS011;501;48.214;11.350;2022-07-25T10:31:19;9.70;;;8.90;;
1024;SDS011;501;48.214;11.350;2022-07-25T10:33:57;10.90;;;9.93;;
1024;SDS011;501;48.214;11.350;2022-07-25T10:36:25;11.03;;;10.00;;
1024;SDS011;501;48.214;11.350;2022-07-25T10:38:56;11.10;;;10.07;;
1024;SDS011;501;48.214;11.350;2022-07-25T10:41:24;9.77;;;8.87;;
1024;SDS011;501;48.214;11.350;2022-07-25T10:43:50;11.77;;;9.50;;
1024;SDS011;501;48.214;11.350;2022-07-25T10:46:19;8.90;;;8.00;;
1024;SDS011;501;48.214;11.350;2022-07-25T10:48:57;10.40;;;8.53;;
1024;SDS011;501;48.214;11.350;2022-07-25T10:51:25;8.47;;;7.83;;
1024;SDS011;501;48.214;11.350;2022-07-25T10:54:14;8.87;;;8.07;;
1024;SDS011;501;48.214;11.350;2022-07-25T10:56:57;8.97;;;8.27;;
1024;SDS011;501;48.214;11.350;2022-07-25T10:59:31;8.80;;;7.97;;
1024;SDS011;501;48.214;11.350;2022-07-25T11:02:00;8.23;;;7.43;;
1024;SDS011;501;48.214;11.350;2022-07-25T11:04:28;7.90;;;7.30;;
1024;SDS011;501;48.214;11.350;2022-07-25T11:06:54;8.40;;;7.47;;
1024;SDS011;501;48.214;11.350;2022-07-25T11:09:21;7.50;;;6.70;;
1024;SDS011;501;48.214;11.350;2022-07-25T11:11:49;7.43;;;6.83;;
1024;SDS011;501;48.214;11.350;2022-07-25T11:14:17;7.97;;;7.30;;
1024;SDS011;501;48.214;11.350;2022-07-25T11:16:44;7.30;;;6.70;;
1024;SDS011;501;48.214;11.350;2022-07-25T11:19:25;8.17;;;6.90;;
1024;SDS011;501;48.214;11.350;2022-07-25T11:21:52;7.27;;;6.67;;
1024;SDS011;501;48.214;11.350;2022-07-25T11:24:41;9.20;;;7.03;;
1024;SDS011;501;48.214;11.350;2022-07-25T11:27:11;6.90;;;6.20;;
1024;SDS011;501;48.214;11.350;2022-07-25T11:29:44;8.07;;;7.30;;
1024;SDS011;501;48.214;11.350;2022-07-25T11:32:10;7.90;;;7.20;;
1024;SDS011;501;48.214;11.350;2022-07-25T11:34:37;7.47;;;6.87;;
1024;SDS011;501;48.214;11.350;2022-07-25T11:37:06;8.70;;;7.80;;
1024;SDS011;501;48.214;11.350;2022-07-25T11:39:34;7.70;;;7.00;;
1024;SDS011;501;48.214;11.350;2022-07-25T11:42:15;6.97;;;6.27;;
1024;SDS011;501;48.214;11.350;2022-07-25T11:44:46;8.53;;;6.87;;
1024;SDS011;501;48.214;11.350;2022-07-25T11:47:34;6.60;;;6.10;;
1024;SDS011;501;48.214;11.350;2022-07-25T11:50:02;8.30;;;6.17;;
1024;SDS011;501;48.214;11.350;2022-07-25T11:52:35;6.90;;;6.40;;
1024;SDS011;501;48.214;11.350;2022-07-25T11:55:05;7.07;;;6.43;;
1024;SDS011;501;48.214;11.350;2022-07-25T11:57:40;7.53;;;7.03;;
1024;SDS011;501;48.214;11.350;2022-07-25T12:00:18;7.53;;;6.83;;
1024;SDS011;501;48.214;11.350;2022-07-25T12:02:46;7.43;;;6.93;;
1024;SDS011;501;48.214;11.350;2022-07-25T12:05:19;7.50;;;6.90;;
1024;SDS011;501;48.214;11.350;2022-07-25T12:07:47;8.63;;;7.67;;
1024;SDS011;501;48.214;11.350;2022-07-25T12:12:50;8.07;;;7.37;;
1024;SDS011;501;48.214;11.350;2022-07-25T12:15:19;8.30;;;7.70;;
1024;SDS011;501;48.214;11.350;2022-07-25T12:17:47;8.90;;;7.10;;
1024;SDS011;501;48.214;11.350;2022-07-25T12:20:14;7.70;;;7.20;;
1024;SDS011;501;48.214;11.350;2022-07-25T12:22:42;8.17;;;7.50;;
1024;SDS011;501;48.214;11.350;2022-07-25T12:25:08;7.97;;;7.37;;
1024;SDS011;501;48.214;11.350;2022-07-25T12:27:34;7.90;;;7.30;;
1024;SDS011;501;48.214;11.350;2022-07-25T12:30:00;8.27;;;7.57;;
1024;SDS011;501;48.214;11.350;2022-07-25T12:32:26;8.60;;;7.90;;
1024;SDS011;501;48.214;11.350;2022-07-25T12:34:52;8.57;;;7.97;;
1024;SDS011;501;48.214;11.350;2022-07-25T12:37:18;8.67;;;7.87;;
1024;SDS011;501;48.214;11.350;2022-07-25T12:39:45;7.97;;;7.27;;
1024;SDS011;501;48.214;11.350;2022-07-25T12:42:11;10.50;;;7.93;;
1024;SDS011;501;48.214;11.350;2022-07-25T12:44:37;8.60;;;7.70;;
1024;SDS011;501;48.214;11.350;2022-07-25T12:47:02;7.97;;;7.47;;
1024;SDS011;501;48.214;11.350;2022-07-25T12:49:28;8.60;;;8.00;;
1024;SDS011;501;48.214;11.350;2022-07-25T12:51:54;8.10;;;7.40;;
1024;SDS011;501;48.214;11.350;2022-07-25T12:54:19;8.17;;;7.40;;
1024;SDS011;501;48.214;11.350;2022-07-25T12:56:45;8.00;;;7.27;;
1024;SDS011;501;48.214;11.350;2022-07-25T12:59:11;7.80;;;7.23;;
1024;SDS011;501;48.214;11.350;2022-07-25T13:01:36;9.50;;;7.67;;
1024;SDS011;501;48.214;11.350;2022-07-25T13:04:02;7.50;;;7.00;;
1024;SDS011;501;48.214;11.350;2022-07-25T13:06:31;8.57;;;7.87;;
1024;SDS011;501;48.214;11.350;2022-07-25T13:08:57;7.43;;;6.80;;
1024;SDS011;501;48.214;11.350;2022-07-25T13:11:23;7.70;;;7.20;;
1024;SDS011;501;48.214;11.350;2022-07-25T13:13:48;8.03;;;7.17;;
1024;SDS011;501;48.214;11.350;2022-07-25T13:16:14;8.27;;;7.67;;
1024;SDS011;501;48.214;11.350;2022-07-25T13:18:40;7.90;;;7.20;;
1024;SDS011;501;48.214;11.350;2022-07-25T13:21:05;7.30;;;6.70;;
1024;SDS011;501;48.214;11.350;2022-07-25T13:23:35;8.67;;;7.60;;
1024;SDS011;501;48.214;11.350;2022-07-25T13:26:01;10.53;;;7.87;;
1024;SDS011;501;48.214;11.350;2022-07-25T13:28:27;8.33;;;7.73;;
1024;SDS011;501;48.214;11.350;2022-07-25T13:30:53;8.20;;;7.50;;
1024;SDS011;501;48.214;11.350;2022-07-25T13:33:19;7.50;;;6.90;;
1024;SDS011;501;48.214;11.350;2022-07-25T13:35:45;8.37;;;7.77;;
1024;SDS011;501;48.214;11.350;2022-07-25T13:38:11;8.30;;;7.60;;
1024;SDS011;501;48.214;11.350;2022-07-25T13:40:37;7.23;;;6.73;;
1024;SDS011;501;48.214;11.350;2022-07-25T13:43:07;7.20;;;6.70;;
1024;SDS011;501;48.214;11.350;2022-07-25T13:45:33;7.90;;;7.30;;
1024;SDS011;501;48.214;11.350;2022-07-25T13:47:59;8.00;;;7.37;;
1024;SDS011;501;48.214;11.350;2022-07-25T13:50:25;8.07;;;7.47;;
1024;SDS011;501;48.214;11.350;2022-07-25T13:52:50;7.30;;;6.70;;
1024;SDS011;501;48.214;11.350;2022-07-25T13:55:16;6.63;;;6.17;;
1024;SDS011;501;48.214;11.350;2022-07-25T13:57:43;6.97;;;6.40;;
1024;SDS011;501;48.214;11.350;2022-07-25T14:00:09;8.03;;;7.20;;
1024;SDS011;501;48.214;11.350;2022-07-25T14:02:35;6.33;;;5.73;;
1024;SDS011;501;48.214;11.350;2022-07-25T14:05:01;6.57;;;5.93;;
1024;SDS011;501;48.214;11.350;2022-07-25T14:07:27;7.17;;;6.50;;
1024;SDS011;501;48.214;11.350;2022-07-25T14:09:53;8.17;;;6.90;;
1024;SDS011;501;48.214;11.350;2022-07-25T14:12:19;7.57;;;6.93;;
1024;SDS011;501;48.214;11.350;2022-07-25T14:14:44;6.70;;;6.20;;
1024;SDS011;501;48.214;11.350;2022-07-25T14:17:10;7.90;;;6.40;;
1024;SDS011;501;48.214;11.350;2022-07-25T14:19:36;6.50;;;6.00;;
1024;SDS011;501;48.214;11.350;2022-07-25T14:22:01;9.10;;;6.63;;
1024;SDS011;501;48.214;11.350;2022-07-25T14:24:27;6.80;;;6.30;;
1024;SDS011;501;48.214;11.350;2022-07-25T14:26:53;7.20;;;6.60;;
1024;SDS011;501;48.214;11.350;2022-07-25T14:29:19;6.67;;;6.17;;
1024;SDS011;501;48.214;11.350;2022-07-25T14:31:45;6.40;;;6.00;;
1024;SDS011;501;48.214;11.350;2022-07-25T14:34:11;7.00;;;6.50;;
1024;SDS011;501;48.214;11.350;2022-07-25T14:36:39;7.23;;;6.60;;
1024;SDS011;501;48.214;11.350;2022-07-25T14:39:05;5.97;;;5.47;;
1024;SDS011;501;48.214;11.350;2022-07-25T14:41:31;7.27;;;6.67;;
1024;SDS011;501;48.214;11.350;2022-07-25T14:43:57;6.50;;;5.90;;
1024;SDS011;501;48.214;11.350;2022-07-25T14:46:23;7.10;;;6.60;;
1024;SDS011;501;48.214;11.350;2022-07-25T14:48:49;7.13;;;6.73;;
1024;SDS011;501;48.214;11.350;2022-07-25T14:51:16;6.33;;;5.80;;
1024;SDS011;501;48.214;11.350;2022-07-25T14:53:42;6.03;;;5.53;;
1024;SDS011;501;48.214;11.350;2022-07-25T14:56:07;5.90;;;5.50;;
1024;SDS011;501;48.214;11.350;2022-07-25T14:58:33;5.83;;;5.43;;
1024;SDS011;501;48.214;11.350;2022-07-25T15:00:59;6.77;;;6.20;;
1024;SDS011;501;48.214;11.350;2022-07-25T15:03:25;6.70;;;5.10;;
1024;SDS011;501;48.214;11.350;2022-07-25T15:05:51;6.60;;;5.57;;
1024;SDS011;501;48.214;11.350;2022-07-25T15:08:17;5.90;;;5.40;;
1024;SDS011;501;48.214;11.350;2022-07-25T15:10:42;5.57;;;5.17;;
1024;SDS011;501;48.214;11.350;2022-07-25T15:13:08;5.10;;;4.70;;